Time;durP1;ratioP1;P1;durP2;ratioP2;P2;SDS_P1;SDS_P2;PMS_P1;PMS_P2;Temp;Humidity;BMP_temperature;BMP_pressure;BME280_temperature;BME280_humidity;BME280_pressure;Samples;Min_cycle;Max_cycle;Signal;HPM_P1;HPM_P2
2023/03/25 00:03:16;;;;;;;1.77;0.80;;;;;8.70;99846.00;;;;9721103;30;20222;-78
2023/03/25 00:08:18;;;;;;;3.33;0.80;;;;;8.70;99848.00;;;;9700570;30;20205;-78
2023/03/25 00:13:21;;;;;;;3.43;0.90;;;;;8.70;99842.00;;;;9708755;30;20214;-79
2023/03/25 00:18:25;;;;;;;5.13;1.40;;;;;8.70;99845.00;;;;9683500;30;20223;-78
2023/03/25 00:23:29;;;;;;;2.93;1.10;;;;;8.60;99837.00;;;;9713146;30;20260;-78
2023/03/25 00:28:33;;;;;;;3.67;1.17;;;;;8.50;99836.00;;;;9706876;30;20257;-78
2023/03/25 00:33:35;;;;;;;5.97;1.13;;;;;8.50;99833.00;;;;9719620;30;20210;-77
2023/03/25 00:38:40;;;;;;;4.23;1.17;;;;;8.50;99843.00;;;;9691454;30;20652;-78
2023/03/25 00:43:44;;;;;;;8.27;1.73;;;;;8.50;99842.00;;;;9718007;30;20356;-80
2023/03/25 00:48:46;;;;;;;8.17;1.27;;;;;8.50;99849.00;;;;9720332;30;20274;-78
2023/03/25 00:53:54;;;;;;;4.43;1.53;;;;;8.50;99840.00;;;;9695650;30;20211;-78
2023/03/25 00:58:56;;;;;;;3.67;1.30;;;;;8.50;99841.00;;;;9677206;30;20223;-79
2023/03/25 01:04:00;;;;;;;4.27;1.17;;;;;8.60;99837.00;;;;9700603;30;20218;-78
2023/03/25 01:09:05;;;;;;;5.33;1.10;;;;;8.70;99831.00;;;;9711819;30;20229;-78
2023/03/25 01:14:12;;;;;;;3.03;0.90;;;;;8.80;99836.00;;;;9719888;30;20705;-78
2023/03/25 01:19:14;;;;;;;9.23;1.60;;;;;8.80;99836.00;;;;9711485;30;20218;-78
2023/03/25 01:24:17;;;;;;;7.90;1.80;;;;;8.70;99828.00;;;;9676873;30;20214;-79
2023/03/25 01:29:20;;;;;;;7.73;1.60;;;;;8.60;99830.00;;;;9702353;30;20207;-78
2023/03/25 01:34:23;;;;;;;8.43;1.50;;;;;8.60;99811.00;;;;9674887;30;20621;-78
2023/03/25 01:39:26;;;;;;;3.63;1.13;;;;;8.60;99826.00;;;;9683013;30;20222;-78
2023/03/25 01:44:28;;;;;;;2.67;1.10;;;;;8.60;99821.00;;;;9711668;30;20213;-79
2023/03/25 01:49:37;;;;;;;5.33;1.70;;;;;8.70;99826.00;;;;9709922;30;20210;-78
2023/03/25 01:54:42;;;;;;;5.73;1.33;;;;;8.60;99810.00;;;;9706949;30;20211;-78
2023/03/25 01:59:44;;;;;;;4.20;1.30;;;;;8.50;99813.00;;;;9721245;30;20211;-78
2023/03/25 02:05:12;;;;;;;6.40;1.50;;;;;8.60;99806.00;;;;9708598;30;20265;-78
2023/03/25 02:10:16;;;;;;;6.83;1.73;;;;;8.60;99808.00;;;;9698327;30;20213;-78
2023/03/25 02:15:19;;;;;;;5.73;2.43;;;;;8.60;99810.00;;;;9749073;30;20225;-79
2023/03/25 02:20:43;;;;;;;8.23;1.57;;;;;8.60;99807.00;;;;9753489;30;20221;-78
2023/03/25 02:26:04;;;;;;;6.30;1.60;;;;;8.60;99788.00;;;;9716766;30;20218;-78
2023/03/25 02:31:24;;;;;;;3.30;1.17;;;;;8.70;99796.00;;;;9703544;30;20249;-78
2023/03/25 02:36:51;;;;;;;3.53;0.90;;;;;8.70;99782.00;;;;9687734;30;20199;-78
2023/03/25 02:42:16;;;;;;;6.00;1.20;;;;;8.70;99794.00;;;;9704382;30;20231;-78
2023/03/25 02:47:23;;;;;;;6.97;1.40;;;;;8.70;99780.00;;;;9734180;30;20268;-78
2023/03/25 02:52:26;;;;;;;9.53;1.37;;;;;8.60;99775.00;;;;9753650;30;20281;-78
2023/03/25 02:57:33;;;;;;;3.97;1.40;;;;;8.60;99783.00;;;;9739692;30;20256;-78
2023/03/25 03:02:36;;;;;;;5.57;1.37;;;;;8.60;99785.00;;;;9740174;30;20217;-79
2023/03/25 03:07:44;;;;;;;7.57;1.40;;;;;8.40;99768.00;;;;9711962;30;20726;-78
2023/03/25 03:12:52;;;;;;;6.57;1.83;;;;;8.30;99787.00;;;;9736945;30;20203;-78
2023/03/25 03:18:16;;;;;;;6.30;1.50;;;;;8.20;99791.00;;;;9734668;30;20215;-78
2023/03/25 03:23:28;;;;;;;6.77;1.50;;;;;8.20;99783.00;;;;9719566;30;20259;-78
2023/03/25 03:28:46;;;;;;;6.37;1.63;;;;;8.30;99786.00;;;;9687614;30;20203;-78
2023/03/25 03:33:54;;;;;;;13.07;2.83;;;;;8.30;99794.00;;;;9747341;30;20213;-78
2023/03/25 03:39:09;;;;;;;6.57;1.53;;;;;8.20;99788.00;;;;9733573;30;20235;-78
2023/03/25 03:44:14;;;;;;;6.33;1.40;;;;;8.20;99801.00;;;;9748265;30;20305;-78
2023/03/25 03:49:20;;;;;;;10.13;2.03;;;;;8.00;99803.00;;;;9678251;30;20202;-78
2023/03/25 03:54:31;;;;;;;7.50;1.83;;;;;7.80;99810.00;;;;9693375;30;20668;-77
2023/03/25 03:59:47;;;;;;;5.97;1.80;;;;;7.70;99801.00;;;;9690611;30;20230;-78
2023/03/25 04:04:52;;;;;;;9.03;2.63;;;;;7.60;99800.00;;;;9741916;30;20205;-78
2023/03/25 04:10:02;;;;;;;11.53;1.67;;;;;7.60;99796.00;;;;9699686;30;20214;-78
2023/03/25 04:15:05;;;;;;;12.33;2.33;;;;;7.50;99794.00;;;;9752052;30;20238;-78
2023/03/25 04:20:12;;;;;;;7.63;1.57;;;;;7.50;99799.00;;;;9726661;30;20694;-78
2023/03/25 04:25:14;;;;;;;6.47;1.43;;;;;7.40;99799.00;;;;9725731;30;20210;-78
2023/03/25 04:30:16;;;;;;;7.60;1.60;;;;;7.40;99794.00;;;;9713155;30;20214;-78
2023/03/25 04:35:19;;;;;;;5.03;1.47;;;;;7.40;99795.00;;;;9727336;30;20234;-78
2023/03/25 04:40:24;;;;;;;8.73;1.90;;;;;7.50;99797.00;;;;9730742;30;20277;-78
2023/03/25 04:45:27;;;;;;;5.43;1.67;;;;;7.60;99794.00;;;;9752328;30;20194;-78
2023/03/25 04:50:30;;;;;;;11.60;2.37;;;;;7.60;99801.00;;;;9713626;30;20232;-77
2023/03/25 04:55:33;;;;;;;11.43;2.40;;;;;7.60;99804.00;;;;9756532;30;20931;-78
2023/03/25 05:00:35;;;;;;;9.80;2.27;;;;;7.60;99796.00;;;;9713216;30;20630;-77
2023/03/25 05:05:37;;;;;;;5.50;1.50;;;;;7.70;99799.00;;;;9727694;30;20289;-78
2023/03/25 05:10:42;;;;;;;8.63;2.90;;;;;7.70;99800.00;;;;9698878;30;20210;-78
2023/03/25 05:15:43;;;;;;;6.37;1.43;;;;;7.70;99797.00;;;;9691803;30;20218;-78
2023/03/25 05:20:49;;;;;;;7.77;1.57;;;;;7.80;99812.00;;;;9734703;30;20249;-78
2023/03/25 05:25:51;;;;;;;8.27;1.93;;;;;7.80;99825.00;;;;9727247;30;20202;-78
2023/03/25 05:30:54;;;;;;;4.17;1.57;;;;;7.80;99825.00;;;;9727155;30;20198;-77
2023/03/25 05:35:56;;;;;;;10.50;2.07;;;;;7.80;99840.00;;;;9729121;30;20825;-78
2023/03/25 05:40:59;;;;;;;8.83;2.53;;;;;7.80;99840.00;;;;9712292;30;20269;-78
2023/03/25 05:46:03;;;;;;;10.30;1.90;;;;;7.80;99851.00;;;;9729614;30;20199;-77
2023/03/25 05:51:17;;;;;;;6.50;1.67;;;;;7.80;99848.00;;;;9741494;30;20195;-78
2023/03/25 05:56:21;;;;;;;7.30;1.67;;;;;7.90;99853.00;;;;9679052;30;20302;-78
2023/03/25 06:01:24;;;;;;;9.17;2.00;;;;;7.90;99846.00;;;;9691337;30;20215;-78
2023/03/25 06:06:34;;;;;;;11.77;2.43;;;;;7.90;99847.00;;;;9709946;30;20210;-78
2023/03/25 06:11:36;;;;;;;7.73;1.70;;;;;7.90;99841.00;;;;9744686;30;20194;-77
2023/03/25 06:16:39;;;;;;;11.23;2.40;;;;;7.90;99848.00;;;;9715734;30;20203;-78
2023/03/25 06:21:42;;;;;;;7.90;2.10;;;;;8.00;99852.00;;;;9715783;30;20629;-78
2023/03/25 06:26:44;;;;;;;13.70;2.90;;;;;8.60;99861.00;;;;9720814;30;20268;-78
2023/03/25 06:31:46;;;;;;;9.40;2.10;;;;;9.20;99865.00;;;;9724825;30;20742;-78
2023/03/25 06:36:48;;;;;;;12.20;2.67;;;;;9.40;99857.00;;;;9738049;30;20594;-77
2023/03/25 06:41:51;;;;;;;16.20;2.10;;;;;9.20;99873.00;;;;9709758;30;20310;-77
2023/03/25 06:47:01;;;;;;;6.27;1.97;;;;;8.80;99878.00;;;;9737336;30;20206;-78
2023/03/25 06:52:23;;;;;;;8.60;2.13;;;;;8.50;99873.00;;;;9719411;30;20199;-78
2023/03/25 06:57:25;;;;;;;14.43;2.07;;;;;8.80;99881.00;;;;9725775;30;20668;-77
2023/03/25 07:02:27;;;;;;;6.47;2.10;;;;;9.30;99883.00;;;;9691829;30;20719;-77
2023/03/25 07:07:29;;;;;;;13.37;2.13;;;;;9.50;99892.00;;;;9753849;30;20199;-78
2023/03/25 07:12:33;;;;;;;13.40;2.07;;;;;9.80;99886.00;;;;9738552;30;20233;-77
2023/03/25 07:17:35;;;;;;;12.77;2.37;;;;;9.90;99892.00;;;;9738475;30;20230;-78
2023/03/25 07:22:37;;;;;;;10.53;2.13;;;;;10.30;99885.00;;;;9724241;30;20276;-78
2023/03/25 07:27:39;;;;;;;9.03;2.20;;;;;10.70;99899.00;;;;9708129;30;20302;-78
2023/03/25 07:32:49;;;;;;;15.93;3.17;;;;;10.90;99911.00;;;;9695377;30;20199;-77
2023/03/25 07:37:51;;;;;;;9.60;1.93;;;;;11.20;99912.00;;;;9721246;30;20202;-78
2023/03/25 07:42:53;;;;;;;7.87;2.30;;;;;11.40;99901.00;;;;9733838;30;20287;-78
2023/03/25 07:48:00;;;;;;;9.73;2.20;;;;;11.70;99903.00;;;;9715227;30;20230;-79
2023/03/25 07:53:02;;;;;;;9.43;2.23;;;;;11.90;99913.00;;;;9709141;30;20203;-78
2023/03/25 07:58:05;;;;;;;13.67;2.37;;;;;11.30;99914.00;;;;9708714;30;20197;-78
2023/03/25 08:03:10;;;;;;;10.70;2.50;;;;;10.80;99925.00;;;;9726306;30;20198;-79
2023/03/25 08:08:13;;;;;;;13.00;2.60;;;;;10.80;99936.00;;;;9703229;30;20202;-79
2023/03/25 08:13:16;;;;;;;10.50;2.67;;;;;11.20;99933.00;;;;9702744;30;20318;-79
2023/03/25 08:18:19;;;;;;;14.63;2.20;;;;;11.80;99950.00;;;;9697025;30;20199;-77
2023/03/25 08:23:22;;;;;;;11.67;2.50;;;;;11.50;99952.00;;;;9701031;30;20210;-78
2023/03/25 08:28:25;;;;;;;13.37;3.27;;;;;11.60;99951.00;;;;9724916;30;20320;-78
2023/03/25 08:33:38;;;;;;;12.97;3.20;;;;;12.70;99951.00;;;;9739427;30;20711;-77
2023/03/25 08:38:40;;;;;;;14.93;2.97;;;;;13.00;99936.00;;;;9710338;30;20226;-78
2023/03/25 08:43:43;;;;;;;14.20;3.70;;;;;14.00;99938.00;;;;9704293;30;20253;-78
2023/03/25 08:48:48;;;;;;;14.13;3.70;;;;;14.20;99928.00;;;;9705499;30;20301;-79
2023/03/25 08:53:51;;;;;;;13.98;3.00;;;;;14.20;99929.00;;;;9697868;30;20237;-79
2023/03/25 08:58:53;;;;;;;15.75;3.45;;;;;13.40;99950.00;;;;9708705;30;20214;-78
2023/03/25 09:03:57;;;;;;;10.63;2.60;;;;;12.40;99957.00;;;;9688750;30;20214;-78
2023/03/25 09:08:59;;;;;;;10.90;3.10;;;;;13.10;99971.00;;;;9723990;30;20205;-80
2023/03/25 09:14:02;;;;;;;15.10;2.97;;;;;13.90;99957.00;;;;9690274;30;20244;-78
2023/03/25 09:19:04;;;;;;;14.73;3.20;;;;;14.40;99973.00;;;;9679119;30;22885;-79
2023/03/25 09:24:08;;;;;;;12.37;2.97;;;;;14.10;99981.00;;;;9719288;30;20226;-78
2023/03/25 09:29:10;;;;;;;15.00;3.10;;;;;13.40;99985.00;;;;9745079;30;20203;-78
2023/03/25 09:34:12;;;;;;;14.57;3.20;;;;;12.50;99983.00;;;;9705590;30;20206;-78
2023/03/25 09:39:17;;;;;;;19.17;3.30;;;;;12.10;99995.00;;;;9724802;30;20270;-78
2023/03/25 09:44:49;;;;;;;15.73;4.17;;;;;11.10;100011.00;;;;9739380;30;20206;-76
2023/03/25 09:49:58;;;;;;;9.83;2.70;;;;;10.90;100016.00;;;;9694672;30;20663;-75
2023/03/25 09:55:07;;;;;;;15.27;4.03;;;;;11.40;99987.00;;;;9716389;30;20217;-77
2023/03/25 10:00:16;;;;;;;20.57;3.47;;;;;13.50;99998.00;;;;9699566;30;20306;-75
2023/03/25 10:05:28;;;;;;;15.37;2.60;;;;;15.20;99984.00;;;;9700954;30;20202;-77
2023/03/25 10:10:54;;;;;;;12.88;3.25;;;;;14.40;100003.00;;;;9712674;30;20205;-76
2023/03/25 10:16:20;;;;;;;16.97;3.10;;;;;13.70;100012.00;;;;9724585;30;20674;-76
2023/03/25 10:21:32;;;;;;;15.23;3.43;;;;;12.90;100015.00;;;;9700507;30;20241;-76
2023/03/25 10:26:43;;;;;;;17.27;3.30;;;;;11.60;100016.00;;;;9732825;30;20232;-76
2023/03/25 10:31:53;;;;;;;20.37;4.00;;;;;11.10;100009.00;;;;9730837;30;20264;-75
2023/03/25 10:36:59;;;;;;;15.73;3.20;;;;;12.60;100028.00;;;;9743119;30;20202;-76
2023/03/25 10:42:28;;;;;;;16.10;3.50;;;;;14.10;100004.00;;;;9704350;30;20230;-77
2023/03/25 10:47:35;;;;;;;12.70;2.93;;;;;15.40;100000.00;;;;9730586;30;20719;-77
2023/03/25 10:52:37;;;;;;;11.67;3.00;;;;;15.10;99978.00;;;;9714447;30;20195;-77
2023/03/25 10:57:40;;;;;;;14.63;3.20;;;;;16.50;99963.00;;;;9713541;30;20301;-78
2023/03/25 11:02:42;;;;;;;11.90;2.53;;;;;17.10;99964.00;;;;9712576;30;20223;-80
2023/03/25 11:07:55;;;;;;;16.52;3.15;;;;;18.80;99964.00;;;;9699251;30;20210;-79
2023/03/25 11:13:02;;;;;;;10.75;2.65;;;;;17.90;99967.00;;;;9733925;30;20237;-79
2023/03/25 11:18:07;;;;;;;11.38;2.85;;;;;16.60;99978.00;;;;9727168;30;20293;-80
2023/03/25 11:23:31;;;;;;;11.65;2.42;;;;;14.30;99996.00;;;;9727817;30;20764;-79
2023/03/25 11:28:49;;;;;;;10.38;3.20;;;;;13.20;99990.00;;;;9713742;30;20230;-78
2023/03/25 11:34:09;;;;;;;16.17;2.73;;;;;12.60;100011.00;;;;9691731;30;20679;-78
2023/03/25 11:39:26;;;;;;;15.77;2.30;;;;;11.40;100056.00;;;;9722276;30;20279;-76
2023/03/25 11:44:31;;;;;;;11.03;2.50;;;;;10.90;100065.00;;;;9701086;30;20214;-78
2023/03/25 11:49:37;;;;;;;15.53;2.60;;;;;10.10;100088.00;;;;9723520;30;20884;-78
2023/03/25 11:54:41;;;;;;;10.63;2.30;;;;;10.20;100101.00;;;;9699361;30;20218;-78
2023/03/25 11:59:48;;;;;;;9.43;2.63;;;;;10.50;100079.00;;;;9702956;30;20286;-77
2023/03/25 12:05:01;;;;;;;8.97;1.80;;;;;10.90;100060.00;;;;9729392;30;20416;-78
2023/03/25 12:10:05;;;;;;;16.40;2.77;;;;;11.20;100058.00;;;;9728086;30;20424;-77
2023/03/25 12:15:10;;;;;;;11.97;2.33;;;;;11.70;100058.00;;;;9699135;30;20203;-78
2023/03/25 12:20:24;;;;;;;10.83;2.13;;;;;13.10;100060.00;;;;9710358;30;20265;-79
2023/03/25 12:25:41;;;;;;;8.43;2.63;;;;;13.70;100054.00;;;;9692038;30;20703;-78
2023/03/25 12:30:43;;;;;;;13.13;2.80;;;;;14.50;100054.00;;;;9723737;30;20210;-80
2023/03/25 12:36:22;;;;;;;12.17;3.17;;;;;15.20;100047.00;;;;9701123;30;20195;-79
2023/03/25 12:41:32;;;;;;;11.52;2.65;;;;;15.20;100052.00;;;;9685707;30;20242;-79
2023/03/25 12:47:07;;;;;;;10.05;2.53;;;;;14.30;100043.00;;;;10562578;27;20553;-80
2023/03/25 12:52:21;;;;;;;14.73;2.70;;;;;15.40;100037.00;;;;10538128;28;20180;-80
2023/03/25 12:57:54;;;;;;;15.25;2.90;;;;;16.80;100032.00;;;;10533646;28;20243;-80
2023/03/25 13:03:21;;;;;;;13.70;2.85;;;;;16.50;100032.00;;;;10565377;28;20200;-79
2023/03/25 13:08:27;;;;;;;14.40;2.70;;;;;16.30;100021.00;;;;10517968;28;20196;-79
2023/03/25 13:13:32;;;;;;;11.90;2.67;;;;;16.60;100019.00;;;;10517461;28;20698;-80
2023/03/25 13:18:40;;;;;;;10.48;2.72;;;;;16.90;100026.00;;;;10549232;28;20195;-79
2023/03/25 13:23:51;;;;;;;11.63;2.97;;;;;18.10;100019.00;;;;10550770;28;20219;-79
2023/03/25 13:28:58;;;;;;;13.13;2.88;;;;;18.00;100034.00;;;;10506080;28;20185;-79
2023/03/25 13:34:26;;;;;;;14.57;2.90;;;;;17.40;100035.00;;;;10531979;28;20715;-79
2023/03/25 13:39:43;;;;;;;13.20;2.95;;;;;17.50;100002.00;;;;10529147;28;20595;-79
2023/03/25 13:44:49;;;;;;;12.38;3.00;;;;;18.30;100008.00;;;;10512268;28;20272;-79
2023/03/25 13:49:57;;;;;;;8.38;2.65;;;;;21.10;99983.00;;;;10512911;28;20185;-79
2023/03/25 13:55:20;;;;;;;13.45;2.33;;;;;21.20;100003.00;;;;10495373;28;20719;-80
2023/03/25 14:00:46;;;;;;;11.35;2.95;;;;;21.00;99986.00;;;;10461416;28;20607;-80
2023/03/25 14:06:08;;;;;;;9.48;2.25;;;;;23.70;99975.00;;;;10482694;28;20224;-79
2023/03/25 14:11:16;;;;;;;8.18;2.35;;;;;22.60;100028.00;;;;10431333;28;20220;-79
2023/03/25 14:16:24;;;;;;;11.40;2.10;;;;;18.20;100040.00;;;;10430366;28;20575;-80
2023/03/25 14:21:35;;;;;;;8.60;2.05;;;;;19.10;99968.00;;;;10484726;28;20664;-79
2023/03/25 14:26:45;;;;;;;8.60;2.40;;;;;19.30;99972.00;;;;10460768;28;20212;-79
2023/03/25 14:32:36;;;;;;;9.90;2.30;;;;;17.80;100032.00;;;;10470643;28;20274;-79
2023/03/25 14:37:38;;;;;;;10.73;2.63;;;;;17.50;100019.00;;;;10482611;28;20208;-79
2023/03/25 14:42:56;;;;;;;9.68;2.15;;;;;15.90;100035.00;;;;10521317;28;20682;-79
2023/03/25 14:47:59;;;;;;;6.43;2.15;;;;;15.00;100054.00;;;;10486806;27;20276;-79
2023/03/25 14:53:11;;;;;;;8.88;2.40;;;;;14.90;100061.00;;;;10501931;28;20622;-79
2023/03/25 14:58:22;;;;;;;14.63;2.33;;;;;15.50;100054.00;;;;10558189;27;20651;-80
2023/03/25 15:03:33;;;;;;;9.13;2.10;;;;;15.20;100056.00;;;;10528721;28;20246;-79
2023/03/25 15:08:39;;;;;;;8.83;2.07;;;;;14.80;100062.00;;;;10545112;28;20596;-79
2023/03/25 15:13:46;;;;;;;8.95;2.38;;;;;13.90;100063.00;;;;10536677;27;20179;-79
2023/03/25 15:18:48;;;;;;;8.52;2.63;;;;;13.00;100067.00;;;;10526836;28;20196;-77
2023/03/25 15:24:02;;;;;;;12.03;2.30;;;;;12.50;100081.00;;;;10529506;28;20214;-77
2023/03/25 15:29:23;;;;;;;10.20;2.27;;;;;12.60;100089.00;;;;10526475;28;20184;-78
2023/03/25 15:35:02;;;;;;;12.13;2.20;;;;;12.60;100084.00;;;;10503400;28;20188;-79
2023/03/25 15:40:07;;;;;;;13.80;3.03;;;;;12.90;100093.00;;;;10525467;28;20191;-79
2023/03/25 15:45:51;;;;;;;10.60;2.53;;;;;12.20;100075.00;;;;10488669;27;20713;-80
2023/03/25 15:51:31;;;;;;;13.20;2.50;;;;;12.50;100097.00;;;;10521644;27;20191;-79
2023/03/25 15:56:40;;;;;;;11.07;2.60;;;;;12.70;100106.00;;;;10597566;27;20211;-79
2023/03/25 16:01:47;;;;;;;12.67;2.63;;;;;13.00;100105.00;;;;10578238;27;20186;-80
2023/03/25 16:06:53;;;;;;;10.17;2.47;;;;;13.10;100117.00;;;;10594586;27;20255;-79
2023/03/25 16:12:00;;;;;;;8.13;1.83;;;;;12.70;100113.00;;;;10598052;27;20209;-80
2023/03/25 16:17:06;;;;;;;13.80;2.57;;;;;12.70;100123.00;;;;10547472;27;20180;-80
2023/03/25 16:22:24;;;;;;;17.00;3.73;;;;;13.40;100120.00;;;;10568480;27;20188;-82
2023/03/25 16:27:35;;;;;;;11.90;2.50;;;;;13.20;100141.00;;;;10576281;27;20190;-82
2023/03/25 16:32:37;;;;;;;10.80;2.57;;;;;12.70;100145.00;;;;10580355;27;20346;-83
2023/03/25 16:37:39;;;;;;;14.77;3.10;;;;;12.50;100146.00;;;;10535999;27;20199;-83
2023/03/25 16:42:41;;;;;;;15.40;2.80;;;;;12.30;100153.00;;;;10563986;27;20278;-83
2023/03/25 16:47:45;;;;;;;10.87;2.37;;;;;12.20;100155.00;;;;10553670;27;20200;-83
2023/03/25 16:52:49;;;;;;;14.87;3.00;;;;;12.20;100168.00;;;;10526783;28;20214;-82
2023/03/25 16:57:52;;;;;;;14.37;3.20;;;;;12.10;100168.00;;;;10549910;28;20188;-82
2023/03/25 17:02:55;;;;;;;15.83;3.00;;;;;12.10;100185.00;;;;10532354;28;20840;-82
2023/03/25 17:08:03;;;;;;;20.10;3.93;;;;;12.00;100195.00;;;;10523238;28;20192;-82
2023/03/25 17:13:08;;;;;;;11.70;2.53;;;;;12.00;100178.00;;;;10523430;28;20617;-82
2023/03/25 17:18:15;;;;;;;14.73;3.07;;;;;12.00;100201.00;;;;10522641;28;20300;-82
2023/03/25 17:23:42;;;;;;;15.33;3.53;;;;;11.80;100207.00;;;;10528245;28;20213;-85
2023/03/25 17:28:50;;;;;;;20.40;3.60;;;;;11.70;100221.00;;;;10561968;28;20222;-84
2023/03/25 17:34:17;;;;;;;14.07;3.33;;;;;11.60;100236.00;;;;10573332;28;20194;-84
2023/03/25 17:39:26;;;;;;;13.57;3.13;;;;;11.50;100231.00;;;;10563172;27;20220;-83
2023/03/25 17:44:41;;;;;;;17.63;3.17;;;;;11.40;100241.00;;;;10558259;27;20245;-84
2023/03/25 17:49:43;;;;;;;16.33;3.77;;;;;11.30;100237.00;;;;10582989;27;20686;-84
2023/03/25 17:54:45;;;;;;;20.73;4.43;;;;;11.30;100252.00;;;;10566452;27;20200;-82
2023/03/25 17:59:47;;;;;;;20.20;4.10;;;;;11.20;100256.00;;;;10567548;27;20271;-82
2023/03/25 18:04:50;;;;;;;14.50;3.40;;;;;11.10;100268.00;;;;10578510;27;20210;-82
2023/03/25 18:09:53;;;;;;;18.93;3.40;;;;;11.00;100272.00;;;;10607166;27;20211;-83
2023/03/25 18:14:55;;;;;;;19.70;3.63;;;;;11.00;100275.00;;;;10552940;27;20203;-83
2023/03/25 18:19:57;;;;;;;12.70;3.40;;;;;10.90;100279.00;;;;10562746;27;20196;-83
2023/03/25 18:25:00;;;;;;;24.30;3.83;;;;;10.90;100288.00;;;;10578793;27;20303;-82
2023/03/25 18:30:28;;;;;;;16.83;3.33;;;;;10.80;100287.00;;;;10589257;27;20259;-82
2023/03/25 18:35:30;;;;;;;18.33;4.00;;;;;10.80;100285.00;;;;10594335;27;20557;-82
2023/03/25 18:40:34;;;;;;;23.97;5.80;;;;;10.80;100295.00;;;;10603052;27;20593;-82
2023/03/25 18:45:36;;;;;;;25.90;4.30;;;;;10.80;100294.00;;;;10580689;27;20243;-78
2023/03/25 18:50:43;;;;;;;21.17;3.33;;;;;10.80;100294.00;;;;10577931;27;20199;-78
2023/03/25 18:55:48;;;;;;;18.17;3.80;;;;;10.80;100298.00;;;;10559066;27;20215;-79
2023/03/25 19:00:51;;;;;;;18.37;4.17;;;;;10.80;100299.00;;;;10554734;27;20196;-79
2023/03/25 19:05:54;;;;;;;23.40;3.53;;;;;10.80;100306.00;;;;10560534;27;20291;-79
2023/03/25 19:10:56;;;;;;;23.30;3.90;;;;;10.70;100300.00;;;;10567127;27;20204;-79
2023/03/25 19:16:09;;;;;;;19.47;4.27;;;;;10.60;100295.00;;;;10527447;27;20299;-80
2023/03/25 19:21:19;;;;;;;23.77;5.17;;;;;10.40;100292.00;;;;10547053;27;20211;-79
2023/03/25 19:26:21;;;;;;;27.60;4.83;;;;;10.20;100290.00;;;;10526942;27;20292;-79
2023/03/25 19:31:24;;;;;;;19.73;3.93;;;;;10.00;100265.00;;;;10560252;27;20199;-79
2023/03/25 19:36:26;;;;;;;26.57;5.60;;;;;10.00;100280.00;;;;10544198;27;20195;-80
2023/03/25 19:41:29;;;;;;;21.33;3.80;;;;;9.90;100279.00;;;;10555451;27;20761;-79
2023/03/25 19:46:32;;;;;;;21.63;5.03;;;;;9.80;100281.00;;;;10565012;27;20216;-81
2023/03/25 19:51:34;;;;;;;21.20;3.93;;;;;9.70;100287.00;;;;10549938;27;20214;-81
2023/03/25 19:56:36;;;;;;;13.97;3.17;;;;;9.60;100296.00;;;;10536257;27;20213;-81
2023/03/25 20:01:41;;;;;;;18.93;4.23;;;;;9.50;100300.00;;;;10572105;27;20187;-79
2023/03/25 20:06:44;;;;;;;21.73;4.13;;;;;9.40;100299.00;;;;10523967;28;20319;-79
2023/03/25 20:11:46;;;;;;;18.10;3.33;;;;;9.40;100298.00;;;;10496377;28;20211;-79
2023/03/25 20:16:48;;;;;;;19.13;3.93;;;;;9.20;100301.00;;;;10525901;27;20202;-79
2023/03/25 20:21:50;;;;;;;22.73;5.43;;;;;9.20;100312.00;;;;10538778;27;20299;-79
2023/03/25 20:26:52;;;;;;;20.83;4.30;;;;;9.10;100303.00;;;;10502623;28;20287;-79
2023/03/25 20:31:55;;;;;;;29.77;3.97;;;;;9.00;100302.00;;;;10522877;27;20203;-79
2023/03/25 20:37:00;;;;;;;24.23;5.03;;;;;9.00;100313.00;;;;10521803;27;20207;-80
2023/03/25 20:42:03;;;;;;;22.77;4.20;;;;;8.90;100298.00;;;;10538394;28;20217;-78
2023/03/25 20:47:05;;;;;;;21.10;4.73;;;;;8.80;100296.00;;;;10499677;28;20251;-79
2023/03/25 20:52:08;;;;;;;24.27;4.57;;;;;8.70;100304.00;;;;10525813;28;20226;-79
2023/03/25 20:57:11;;;;;;;24.00;5.00;;;;;8.70;100291.00;;;;10524240;28;20204;-79
2023/03/25 21:02:16;;;;;;;22.20;3.33;;;;;8.60;100297.00;;;;10523648;27;20197;-79
2023/03/25 21:07:21;;;;;;;22.60;3.83;;;;;8.60;100294.00;;;;10570006;27;20219;-79
2023/03/25 21:12:23;;;;;;;19.10;4.40;;;;;8.50;100292.00;;;;10535858;27;20222;-78
2023/03/25 21:17:42;;;;;;;21.53;3.97;;;;;8.50;100299.00;;;;10540898;28;20192;-79
2023/03/25 21:22:44;;;;;;;15.73;3.67;;;;;8.40;100302.00;;;;10548949;27;20248;-79
2023/03/25 21:27:46;;;;;;;16.93;4.20;;;;;8.40;100308.00;;;;10547100;28;20222;-79
2023/03/25 21:32:48;;;;;;;24.13;3.53;;;;;8.40;100313.00;;;;10545461;27;20497;-79
2023/03/25 21:37:51;;;;;;;28.77;3.97;;;;;8.30;100308.00;;;;10547323;28;20811;-79
2023/03/25 21:42:53;;;;;;;22.27;4.40;;;;;8.30;100315.00;;;;10549690;28;20211;-79
2023/03/25 21:47:55;;;;;;;24.60;4.80;;;;;8.30;100307.00;;;;10524141;28;20315;-79
2023/03/25 21:53:02;;;;;;;27.00;5.70;;;;;8.20;100315.00;;;;10499204;28;20228;-79
2023/03/25 21:58:04;;;;;;;20.67;4.90;;;;;8.20;100317.00;;;;10534140;27;20261;-79
2023/03/25 22:03:10;;;;;;;20.47;4.67;;;;;8.20;100316.00;;;;10540970;27;20201;-79
2023/03/25 22:08:13;;;;;;;24.30;4.67;;;;;8.20;100318.00;;;;10521991;27;20200;-79
2023/03/25 22:13:14;;;;;;;19.70;3.33;;;;;8.20;100319.00;;;;10561350;27;20239;-79
2023/03/25 22:18:17;;;;;;;17.67;3.90;;;;;8.30;100316.00;;;;10529960;27;20245;-79
2023/03/25 22:23:20;;;;;;;14.33;4.37;;;;;8.30;100314.00;;;;10522951;27;20188;-79
2023/03/25 22:28:22;;;;;;;28.17;4.37;;;;;8.30;100316.00;;;;10552238;27;20212;-79
2023/03/25 22:33:25;;;;;;;26.80;5.07;;;;;8.30;100309.00;;;;10534972;27;20240;-79
2023/03/25 22:38:27;;;;;;;24.13;4.37;;;;;8.30;100317.00;;;;10540333;27;20249;-79
2023/03/25 22:43:29;;;;;;;26.70;4.37;;;;;8.20;100307.00;;;;10581060;27;20217;-79
2023/03/25 22:48:32;;;;;;;29.43;4.77;;;;;8.20;100301.00;;;;10522756;27;20200;-78
2023/03/25 22:53:34;;;;;;;24.47;3.80;;;;;8.20;100302.00;;;;10530187;27;20212;-79
2023/03/25 22:58:37;;;;;;;22.33;4.60;;;;;8.20;100301.00;;;;10556986;27;20277;-78
2023/03/25 23:03:40;;;;;;;26.97;4.40;;;;;8.30;100294.00;;;;10534804;27;20234;-78
2023/03/25 23:08:43;;;;;;;28.47;4.70;;;;;8.30;100304.00;;;;10552098;27;20207;-78
2023/03/25 23:13:49;;;;;;;19.67;4.27;;;;;8.40;100293.00;;;;10549459;27;20200;-82
2023/03/25 23:18:51;;;;;;;17.83;4.40;;;;;8.40;100293.00;;;;10525706;27;20214;-80
2023/03/25 23:23:56;;;;;;;18.20;3.53;;;;;8.50;100289.00;;;;10520485;27;20212;-81
2023/03/25 23:29:04;;;;;;;21.37;4.30;;;;;8.60;100291.00;;;;10538050;27;20204;-81
2023/03/25 23:34:08;;;;;;;21.30;4.73;;;;;8.60;100283.00;;;;10509655;27;20229;-81
2023/03/25 23:39:14;;;;;;;16.83;3.57;;;;;8.70;100268.00;;;;10548513;27;20215;-80
2023/03/25 23:44:16;;;;;;;21.17;3.37;;;;;8.80;100261.00;;;;10517626;27;20201;-80
2023/03/25 23:49:19;;;;;;;18.50;3.47;;;;;8.90;100260.00;;;;10552618;27;20199;-81
2023/03/25 23:54:21;;;;;;;20.43;3.40;;;;;9.00;100244.00;;;;10572851;27;20195;-81
2023/03/25 23:59:23;;;;;;;9.13;2.60;;;;;9.00;100247.00;;;;10535524;27;20283;-81
